Troutdale, OR

5:47 AM PST on December 29, 2014 (GMT -0800)
Stewart Ridge | Change Station
CLOSE
Current Station
Personal Weather Station
Location: Troutdale, OR
Elevation: 280 ft
Nearby Weather Stations
Active Advisory: Wind Advisory, Special Statement

Elev 280 ft 45.53 °N, 122.39 °W | Updated 2 minutes ago

Light Rain
Light Rain
40.1 °F
Feels Like 40 °F
N
0.0
Wind Variable Wind from East
Gusts 0.0 mph

Today
High -- | Low -- °F
--% Chance of Precip.
Yesterday
High -- | Low -- °F
Precip. -- in
7:49 AM 4:34 PM
First Quarter, 59% visible
Pressure 30.18 in
Visibility 10.0 miles
Clouds Overcast 1500 ft
Windchill 40 °F
Dew Point Not available.
Humidity Not available.
Rainfall 0.16 in
Snow Depth Not available.
UV 0 out of 12
Pollen .50 out of 12
Air Quality Not available.
Flu Activity Not available.
SPECI KTTD 291319Z AUTO 06003KT 10SM -RA OVC015 04/03 A3018 RMK AO2 P0000 T00440028

More Conditions Fewer Conditions

Pressure 30.18 in
Visibility 10.0 miles
Clouds Overcast 1500 ft
Windchill 40 °F
Dew Point Not available.
Humidity Not available.
Rainfall 0.16 in
Snow Depth Not available.
UV 0 out of 12
Pollen .50 out of 12
Air Quality Not available.
Flu Activity Not available.
SPECI KTTD 291319Z AUTO 06003KT 10SM -RA OVC015 04/03 A3018 RMK AO2 P0000 T00440028

More Conditions Fewer Conditions

10-Day Weather Forecast

Almanac

Astronomy

Dec. 29, 2014 Rise Set
Actual Time
Civil Twilight
Nautical Twilight
Astronomical Twilight
Moon
Length of Visible Light
Length of Day
Tomorrow will be .
, % of the Moon is Illuminated

Today's Extremes

State Highs State Lows

Community

WunderPhotos

Upload Photos

1,781,586 photos uploaded!

WunderBlogs® & News

Nearby

Air Quality

  Air Quality AQ Index Pollutant
Not available.

Snow Depth

Station Depth Elevation

Earthquake Activity

City Distance Mag. Time & Date
Minimum magnitude displayed is 2.5.

Coastal Water Temperatures

Place Temperature

Nearby Weather Stations